Rio Blanco — D5BO9 — position and weather

sailwx.info

Track history (hours):
 
Tides and Currents Weather Stations Pressure Air Temp Water Temp Dewpoint Dewpoint Depression Visibility Wind Speed Wind Dir Waves Ship Positions

Rio Blanco

Last reported at 2016-May-01 09:27 UTC. Time now 2016-May-06 09:20 UTC.
Position N 31°11' E 032°20'.

Length 286 m; draft 12.5 m.

Type: Ship (hazmat cat A). MMSI: 636092395.

Date/timePositionNaut miles runAvg speedWind from/ knotsBaromVisibWave heightAir tempDewpointWater temp
2016-May-01 09:27N 31°11' E 032°20'14 2.0
2016-May-01 02:24N 31°25' E 032°19'0 0.1
2016-May-01 01:30N 31°25' E 032°19'0 0.0
2016-May-01 00:33N 31°25' E 032°19'0 0.0
2016-Apr-30 23:27N 31°25' E 032°19'0 0.0
2016-Apr-30 22:33N 31°25' E 032°19'0 0.0
2016-Apr-30 21:33N 31°25' E 032°19'0 0.0
2016-Apr-30 20:33N 31°25' E 032°19'6 6.5
2016-Apr-30 19:34N 31°30' E 032°15'1514.9
2016-Apr-30 18:34N 31°41' E 032°02'1514.5
2016-Apr-30 17:33N 31°49' E 031°49'1514.7
2016-Apr-30 16:33N 31°54' E 031°33'1514.7
2016-Apr-30 15:33N 31°59' E 031°16'1514.8
2016-Apr-30 14:33N 32°04' E 030°60'1514.8
2016-Apr-30 13:33N 32°09' E 030°43'1515.2
2016-Apr-30 12:34N 32°14' E 030°26'1515.3
2016-Apr-30 11:33N 32°19' E 030°09'1515.2
2016-Apr-30 10:34N 32°24' E 029°52'1514.9
2016-Apr-30 09:33N 32°28' E 029°35'1414.3
2016-Apr-30 08:34N 32°32' E 029°19'1010.0
2016-Apr-30 07:33N 32°36' E 029°08'1 0.7
2016-Apr-30 06:33N 32°36' E 029°07'1313.5
2016-Apr-30 05:34N 32°41' E 028°52'1616.4
2016-Apr-30 04:33N 32°46' E 028°34'1817.4
2016-Apr-30 03:33N 32°51' E 028°14'1817.5
2016-Apr-30 02:30N 32°55' E 027°53'1617.2
2016-Apr-30 01:33N 33°03' E 027°35'2617.3
2016-Apr-30 00:04N 33°10' E 027°06'19016.4
2016-Apr-29 12:29N 34°12' E 023°30'16116.2
2016-Apr-29 02:33N 35°04' E 020°25'8216.2
2016-Apr-28 21:28N 35°30' E 018°49'1516.1
2016-Apr-28 20:34N 35°34' E 018°32'1616.2
2016-Apr-28 19:34N 35°39' E 018°13'11916.2
2016-Apr-28 12:15N 36°18' E 015°54'1115.8
2016-Apr-28 11:34N 36°21' E 015°41'1615.9
2016-Apr-28 10:33N 36°27' E 015°23'1915.6
2016-Apr-28 09:18N 36°33' E 014°60'1216.2
2016-Apr-28 08:33N 36°36' E 014°45'1616.3
2016-Apr-28 07:34N 36°42' E 014°26'1615.8
2016-Apr-28 06:33N 36°49' E 014°09'1616.4
2016-Apr-28 05:33N 36°57' E 013°51'1616.4
2016-Apr-28 04:33N 37°04' E 013°33'1716.4
2016-Apr-28 03:33N 37°12' E 013°14'1615.9
2016-Apr-28 02:33N 37°19' E 012°57'1616.0
2016-Apr-28 01:33N 37°22' E 012°36'1515.5
2016-Apr-28 00:33N 37°29' E 012°19'1615.7
2016-Apr-27 23:33N 37°38' E 012°03'1615.9
2016-Apr-27 22:33N 37°46' E 011°46'1616.2
2016-Apr-27 21:34N 37°55' E 011°29'1716.9
2016-Apr-27 20:33N 38°04' E 011°11'1716.7
2016-Apr-27 19:33N 38°13' E 010°53'1616.3
2016-Apr-27 18:33N 38°22' E 010°35'1716.5
2016-Apr-27 17:32N 38°30' E 010°17'1716.6
2016-Apr-27 16:32N 38°40' E 009°59'2016.4
2016-Apr-27 15:19N 38°50' E 009°38'1216.0
2016-Apr-27 14:33N 38°57' E 009°24'1615.8
2016-Apr-27 13:33N 39°05' E 009°07'8 7.9
2016-Apr-27 12:33N 39°13' E 009°04'0 0.0
2016-Apr-27 11:33N 39°13' E 009°04'0 0.0
2016-Apr-27 10:33N 39°13' E 009°04'0 0.0
2016-Apr-27 09:33N 39°13' E 009°04'0 0.0
2016-Apr-27 08:33N 39°13' E 009°04'0 0.0
2016-Apr-27 07:33N 39°13' E 009°04'0 0.0
2016-Apr-27 06:33N 39°13' E 009°04'0 0.0
2016-Apr-27 05:33N 39°13' E 009°04'0 0.0
2016-Apr-27 04:33N 39°13' E 009°04'0 0.0
2016-Apr-27 03:33N 39°13' E 009°04'0 0.0
2016-Apr-27 02:33N 39°13' E 009°04'0 0.0
2016-Apr-27 01:33N 39°13' E 009°04'0 0.0
2016-Apr-27 00:33N 39°13' E 009°04'0 0.0
2016-Apr-26 23:33N 39°13' E 009°04'0 0.0
2016-Apr-26 22:33N 39°13' E 009°04'0 0.0
2016-Apr-26 21:33N 39°13' E 009°04'0 0.0
2016-Apr-26 20:33N 39°13' E 009°04'0 0.0
2016-Apr-26 19:33N 39°13' E 009°04'0 0.0
2016-Apr-26 18:33N 39°13' E 009°04'0 0.0
2016-Apr-26 17:33N 39°13' E 009°04'2 2.5
2016-Apr-26 16:33N 39°11' E 009°06'1212.1
2016-Apr-26 15:33N 38°59' E 009°07'1716.9
2016-Apr-26 14:33N 38°47' E 008°52'33116.4
2016-Apr-25 18:22N 37°14' E 002°09'6416.6
2016-Apr-25 14:30N 36°56' E 000°52'2016.3
2016-Apr-25 13:18N 36°51' E 000°28'28015.7
2016-Apr-24 19:32N 35°60' W 005°14'244 7.0
2016-Apr-23 08:28N 37°45' W 009°49'1414.8
2016-Apr-23 07:33N 37°58' W 009°53'1414.7
2016-Apr-23 06:33N 38°12' W 009°57'1514.9
2016-Apr-23 05:33N 38°27' W 010°02'1514.9
2016-Apr-23 04:33N 38°42' W 010°06'1514.7
2016-Apr-23 03:33N 38°56' W 010°07'1514.7
2016-Apr-23 02:33N 39°11' W 010°07'1514.9
2016-Apr-23 01:33N 39°26' W 010°07'  
Track history (hours):
 
Tides and Currents Weather Stations Pressure Air Temp Water Temp Dewpoint Dewpoint Depression Visibility Wind Speed Wind Dir Waves Ship Positions

Rio Blanco

Last reported at 2016-May-01 09:27 UTC. Time now 2016-May-06 09:20 UTC.
Position N 31°11' E 032°20'.

Length 286 m; draft 12.5 m.

Type: Ship (hazmat cat A). MMSI: 636092395.

Date/timePositionNaut miles runAvg speedWind from/ knotsBaromVisibWave heightAir tempDewpointWater temp
2016-May-01 09:27N 31°11' E 032°20'14 2.0
2016-May-01 02:24N 31°25' E 032°19'0 0.1
2016-May-01 01:30N 31°25' E 032°19'0 0.0
2016-May-01 00:33N 31°25' E 032°19'0 0.0
2016-Apr-30 23:27N 31°25' E 032°19'0 0.0
2016-Apr-30 22:33N 31°25' E 032°19'0 0.0
2016-Apr-30 21:33N 31°25' E 032°19'0 0.0
2016-Apr-30 20:33N 31°25' E 032°19'6 6.5
2016-Apr-30 19:34N 31°30' E 032°15'1514.9
2016-Apr-30 18:34N 31°41' E 032°02'1514.5
2016-Apr-30 17:33N 31°49' E 031°49'1514.7
2016-Apr-30 16:33N 31°54' E 031°33'1514.7
2016-Apr-30 15:33N 31°59' E 031°16'1514.8
2016-Apr-30 14:33N 32°04' E 030°60'1514.8
2016-Apr-30 13:33N 32°09' E 030°43'1515.2
2016-Apr-30 12:34N 32°14' E 030°26'1515.3
2016-Apr-30 11:33N 32°19' E 030°09'1515.2
2016-Apr-30 10:34N 32°24' E 029°52'1514.9
2016-Apr-30 09:33N 32°28' E 029°35'1414.3
2016-Apr-30 08:34N 32°32' E 029°19'1010.0
2016-Apr-30 07:33N 32°36' E 029°08'1 0.7
2016-Apr-30 06:33N 32°36' E 029°07'1313.5
2016-Apr-30 05:34N 32°41' E 028°52'1616.4
2016-Apr-30 04:33N 32°46' E 028°34'1817.4
2016-Apr-30 03:33N 32°51' E 028°14'1817.5
2016-Apr-30 02:30N 32°55' E 027°53'1617.2
2016-Apr-30 01:33N 33°03' E 027°35'2617.3
2016-Apr-30 00:04N 33°10' E 027°06'19016.4
2016-Apr-29 12:29N 34°12' E 023°30'16116.2
2016-Apr-29 02:33N 35°04' E 020°25'8216.2
2016-Apr-28 21:28N 35°30' E 018°49'1516.1
2016-Apr-28 20:34N 35°34' E 018°32'1616.2
2016-Apr-28 19:34N 35°39' E 018°13'11916.2
2016-Apr-28 12:15N 36°18' E 015°54'1115.8
2016-Apr-28 11:34N 36°21' E 015°41'1615.9
2016-Apr-28 10:33N 36°27' E 015°23'1915.6
2016-Apr-28 09:18N 36°33' E 014°60'1216.2
2016-Apr-28 08:33N 36°36' E 014°45'1616.3
2016-Apr-28 07:34N 36°42' E 014°26'1615.8
2016-Apr-28 06:33N 36°49' E 014°09'1616.4
2016-Apr-28 05:33N 36°57' E 013°51'1616.4
2016-Apr-28 04:33N 37°04' E 013°33'1716.4
2016-Apr-28 03:33N 37°12' E 013°14'1615.9
2016-Apr-28 02:33N 37°19' E 012°57'1616.0
2016-Apr-28 01:33N 37°22' E 012°36'1515.5
2016-Apr-28 00:33N 37°29' E 012°19'1615.7
2016-Apr-27 23:33N 37°38' E 012°03'1615.9
2016-Apr-27 22:33N 37°46' E 011°46'1616.2
2016-Apr-27 21:34N 37°55' E 011°29'1716.9
2016-Apr-27 20:33N 38°04' E 011°11'1716.7
2016-Apr-27 19:33N 38°13' E 010°53'1616.3
2016-Apr-27 18:33N 38°22' E 010°35'1716.5
2016-Apr-27 17:32N 38°30' E 010°17'1716.6
2016-Apr-27 16:32N 38°40' E 009°59'2016.4
2016-Apr-27 15:19N 38°50' E 009°38'1216.0
2016-Apr-27 14:33N 38°57' E 009°24'1615.8
2016-Apr-27 13:33N 39°05' E 009°07'8 7.9
2016-Apr-27 12:33N 39°13' E 009°04'0 0.0
2016-Apr-27 11:33N 39°13' E 009°04'0 0.0
2016-Apr-27 10:33N 39°13' E 009°04'0 0.0
2016-Apr-27 09:33N 39°13' E 009°04'0 0.0
2016-Apr-27 08:33N 39°13' E 009°04'0 0.0
2016-Apr-27 07:33N 39°13' E 009°04'0 0.0
2016-Apr-27 06:33N 39°13' E 009°04'0 0.0
2016-Apr-27 05:33N 39°13' E 009°04'0 0.0
2016-Apr-27 04:33N 39°13' E 009°04'0 0.0
2016-Apr-27 03:33N 39°13' E 009°04'0 0.0
2016-Apr-27 02:33N 39°13' E 009°04'0 0.0
2016-Apr-27 01:33N 39°13' E 009°04'0 0.0
2016-Apr-27 00:33N 39°13' E 009°04'0 0.0
2016-Apr-26 23:33N 39°13' E 009°04'0 0.0
2016-Apr-26 22:33N 39°13' E 009°04'0 0.0
2016-Apr-26 21:33N 39°13' E 009°04'0 0.0
2016-Apr-26 20:33N 39°13' E 009°04'0 0.0
2016-Apr-26 19:33N 39°13' E 009°04'0 0.0
2016-Apr-26 18:33N 39°13' E 009°04'0 0.0
2016-Apr-26 17:33N 39°13' E 009°04'2 2.5
2016-Apr-26 16:33N 39°11' E 009°06'1212.1
2016-Apr-26 15:33N 38°59' E 009°07'1716.9
2016-Apr-26 14:33N 38°47' E 008°52'33116.4
2016-Apr-25 18:22N 37°14' E 002°09'6416.6
2016-Apr-25 14:30N 36°56' E 000°52'2016.3
2016-Apr-25 13:18N 36°51' E 000°28'28015.7
2016-Apr-24 19:32N 35°60' W 005°14'244 7.0
2016-Apr-23 08:28N 37°45' W 009°49'1414.8
2016-Apr-23 07:33N 37°58' W 009°53'1414.7
2016-Apr-23 06:33N 38°12' W 009°57'1514.9
2016-Apr-23 05:33N 38°27' W 010°02'1514.9
2016-Apr-23 04:33N 38°42' W 010°06'1514.7
2016-Apr-23 03:33N 38°56' W 010°07'1514.7
2016-Apr-23 02:33N 39°11' W 010°07'1514.9
2016-Apr-23 01:33N 39°26' W 010°07'  

Dump ship's entire track history